Time;durP1;ratioP1;P1;durP2;ratioP2;P2;SDS_P1;SDS_P2;PMS_P1;PMS_P2;Temp;Humidity;BMP_temperature;BMP_pressure;BME280_temperature;BME280_humidity;BME280_pressure;Samples;Min_cycle;Max_cycle;Signal;HPM_P1;HPM_P2
2023/12/19 00:01:08;;;;;;;81.07;34.30;;;;;;;-146.27;94.76;33370.75;5072208;28;20058;-68
2023/12/19 00:03:34;;;;;;;80.43;33.10;;;;;;;-146.27;93.60;33208.03;5072272;28;20032;-68
2023/12/19 00:06:00;;;;;;;80.68;35.25;;;;;;;-146.27;93.96;33297.31;5072244;28;20029;-68
2023/12/19 00:08:25;;;;;;;76.82;32.38;;;;;;;-146.27;95.75;33390.59;5070614;28;20036;-68
2023/12/19 00:10:50;;;;;;;73.05;33.78;;;;;;;-146.27;94.37;33287.41;5067829;28;20033;-69
2023/12/19 00:13:16;;;;;;;84.50;34.22;;;;;;;-146.27;93.97;33263.59;5076755;28;20103;-68
2023/12/19 00:15:42;;;;;;;88.45;34.30;;;;;;;-146.27;93.91;33204.06;5069048;28;20466;-68
2023/12/19 00:18:07;;;;;;;82.38;32.67;;;;;;;-146.27;95.04;33362.81;5084269;28;20086;-68
2023/12/19 00:20:32;;;;;;;87.30;33.78;;;;;;;-146.27;95.04;33305.25;5069415;28;20111;-67
2023/12/19 00:22:58;;;;;;;74.82;30.70;;;;;;;-146.27;95.98;33315.19;5070076;28;20480;-68
2023/12/19 00:25:23;;;;;;;72.43;30.90;;;;;;;-146.27;95.57;33335.03;5070976;28;20471;-67
2023/12/19 00:27:49;;;;;;;82.40;30.65;;;;;;;-146.27;95.26;33239.78;5069792;28;20093;-69
2023/12/19 00:30:15;;;;;;;70.65;31.10;;;;;;;-146.27;96.33;33313.19;5069323;28;20361;-69
2023/12/19 00:32:40;;;;;;;81.07;31.85;;;;;;;-146.27;95.53;33293.38;5065125;28;20032;-69
2023/12/19 00:35:06;;;;;;;83.72;32.83;;;;;;;-146.27;95.53;33235.81;5068730;28;20921;-68
2023/12/19 00:37:31;;;;;;;76.60;28.88;;;;;;;-146.27;95.42;33340.97;5068803;28;20029;-68
2023/12/19 00:39:56;;;;;;;72.28;30.63;;;;;;;-146.27;94.57;33210.03;5069033;28;20033;-68
2023/12/19 00:42:22;;;;;;;86.88;29.90;;;;;;;-146.27;94.38;33241.78;5072576;28;20036;-68
2023/12/19 00:44:47;;;;;;;82.40;29.70;;;;;;;-146.27;94.68;33231.84;5069877;28;20028;-68
2023/12/19 00:47:12;;;;;;;69.63;28.85;;;;;;;-146.27;94.56;33241.78;5067305;28;20024;-68
2023/12/19 00:49:38;;;;;;;56.50;28.83;;;;;;;-146.27;94.75;33208.03;5070792;28;20024;-66
2023/12/19 00:52:03;;;;;;;84.07;31.52;;;;;;;-146.27;94.78;33241.78;5062104;28;20051;-68
2023/12/19 00:54:29;;;;;;;91.05;32.78;;;;;;;-146.27;96.19;33261.63;5066789;28;20142;-69
2023/12/19 00:56:54;;;;;;;86.00;35.13;;;;;;;-146.27;95.66;33263.59;5070531;28;20032;-68
2023/12/19 00:59:20;;;;;;;80.10;32.40;;;;;;;-146.27;95.85;33291.38;5070588;28;20472;-68
2023/12/19 01:01:46;;;;;;;81.25;32.50;;;;;;;-146.27;95.29;33188.19;5074649;28;20031;-68
2023/12/19 01:04:12;;;;;;;86.63;33.83;;;;;;;-146.27;95.54;33247.72;5070998;28;20028;-68
2023/12/19 01:06:37;;;;;;;87.53;35.05;;;;;;;-146.27;95.47;33210.03;5077557;28;20032;-67
2023/12/19 01:09:04;;;;;;;87.50;36.08;;;;;;;-146.27;95.95;33225.91;5072620;28;20024;-69
2023/12/19 01:11:29;;;;;;;83.70;36.15;;;;;;;-146.27;95.33;33196.13;5069381;28;20028;-68
2023/12/19 01:13:55;;;;;;;77.97;33.45;;;;;;;-146.27;95.04;33194.16;5062467;28;20075;-68
2023/12/19 01:16:20;;;;;;;81.40;33.42;;;;;;;-146.27;94.88;33156.47;5063105;28;20016;-69
2023/12/19 01:18:46;;;;;;;86.05;34.00;;;;;;;-146.27;95.26;33227.88;5073161;28;20495;-68
2023/12/19 01:21:11;;;;;;;74.93;31.88;;;;;;;-146.27;95.61;33279.47;5059372;28;20029;-68
2023/12/19 01:23:38;;;;;;;71.85;31.20;;;;;;;-146.27;95.27;33239.78;5068241;28;20024;-69
2023/12/19 01:26:04;;;;;;;87.80;32.85;;;;;;;-146.27;94.76;33196.13;5062038;28;20028;-67
2023/12/19 01:28:29;;;;;;;78.78;32.95;;;;;;;-146.27;95.84;33110.81;5071770;28;20028;-68
2023/12/19 01:30:55;;;;;;;90.22;33.42;;;;;;;-146.27;95.53;33215.97;5058567;28;20103;-69
2023/12/19 01:33:20;;;;;;;91.28;33.55;;;;;;;-146.27;95.37;33214.00;5069483;28;20036;-69
2023/12/19 01:35:45;;;;;;;92.15;34.45;;;;;;;-146.27;95.50;33219.94;5069779;28;20039;-68
2023/12/19 01:38:12;;;;;;;92.13;34.97;;;;;;;-146.27;96.12;33223.91;5070309;28;20107;-68
2023/12/19 01:40:38;;;;;;;75.93;33.17;;;;;;;-146.27;95.80;33239.78;5050340;28;20029;-67
2023/12/19 01:43:16;;;;;;;85.43;33.47;;;;;;;-146.27;95.56;33204.06;5055858;28;20039;-68
2023/12/19 01:45:41;;;;;;;79.78;34.10;;;;;;;-146.27;95.65;33231.84;5060423;28;20099;-68
2023/12/19 01:48:07;;;;;;;86.13;33.65;;;;;;;-146.27;95.29;33192.16;5070050;28;20127;-69
2023/12/19 01:50:32;;;;;;;68.72;31.33;;;;;;;-146.27;95.36;33229.88;5069364;28;20103;-68
2023/12/19 01:52:58;;;;;;;66.80;29.77;;;;;;;-146.27;95.53;33210.03;5067325;28;20105;-68
2023/12/19 01:55:24;;;;;;;61.97;29.48;;;;;;;-146.27;95.61;33305.25;5065721;28;20499;-67
2023/12/19 01:57:50;;;;;;;67.07;32.13;;;;;;;-146.27;95.60;33237.81;5059935;28;20461;-71
2023/12/19 02:00:16;;;;;;;74.47;29.10;;;;;;;-146.27;95.26;33180.28;5065618;28;20054;-69
2023/12/19 02:02:42;;;;;;;62.47;29.33;;;;;;;-146.27;95.07;33245.75;5067522;28;20051;-67
2023/12/19 02:05:07;;;;;;;54.85;27.88;;;;;;;-146.27;96.02;33233.84;5069678;28;20025;-68
2023/12/19 02:07:33;;;;;;;57.35;25.27;;;;;;;-146.27;97.40;33366.78;5066108;28;20032;-68
2023/12/19 02:10:00;;;;;;;63.88;29.55;;;;;;;-146.27;96.92;33283.44;5067554;28;20024;-67
2023/12/19 02:12:25;;;;;;;60.75;29.30;;;;;;;-146.27;97.13;33303.28;5067451;28;20396;-67
2023/12/19 02:14:51;;;;;;;75.20;30.95;;;;;;;-146.27;96.66;33257.66;5068213;28;20029;-67
2023/12/19 02:17:17;;;;;;;73.05;33.10;;;;;;;-146.27;96.18;33206.06;5068292;28;20480;-69
2023/12/19 02:19:48;;;;;;;73.25;31.05;;;;;;;-146.27;95.39;33178.28;5070178;28;20057;-66
2023/12/19 02:22:14;;;;;;;68.20;31.17;;;;;;;-146.27;96.44;33251.69;5051099;28;20025;-68
2023/12/19 02:24:40;;;;;;;81.45;33.33;;;;;;;-146.27;96.21;33231.84;5050719;28;20048;-68
2023/12/19 02:27:06;;;;;;;87.50;33.28;;;;;;;-146.27;95.64;33214.00;5067160;28;20031;-69
2023/12/19 02:29:32;;;;;;;74.97;30.90;;;;;;;-146.27;95.15;33196.13;5064954;28;20025;-68
2023/12/19 02:31:58;;;;;;;75.30;32.13;;;;;;;-146.27;95.27;33188.19;5052692;28;20094;-68
2023/12/19 02:34:24;;;;;;;75.88;30.77;;;;;;;-146.27;95.90;33212.00;5069939;28;20746;-68
2023/12/19 02:36:49;;;;;;;67.80;29.33;;;;;;;-146.27;96.82;33279.47;5070214;28;20109;-68
2023/12/19 02:39:15;;;;;;;65.30;29.33;;;;;;;-146.27;95.65;33215.97;5086894;28;20035;-69
2023/12/19 02:41:40;;;;;;;61.15;27.88;;;;;;;-146.27;97.03;33269.56;5083708;28;20036;-68
2023/12/19 02:44:05;;;;;;;65.68;28.75;;;;;;;-146.27;97.64;33295.34;5066962;28;20032;-68
2023/12/19 02:46:32;;;;;;;66.30;31.30;;;;;;;-146.27;97.34;33239.78;5071473;28;20483;-68
2023/12/19 02:48:58;;;;;;;60.58;28.92;;;;;;;-146.27;95.91;33202.09;5065651;28;20028;-66
2023/12/19 02:51:24;;;;;;;59.50;27.60;;;;;;;-146.27;97.00;33261.63;5065013;28;20029;-69
2023/12/19 02:53:50;;;;;;;57.00;28.50;;;;;;;-146.27;97.05;33217.97;5068535;28;20047;-68
2023/12/19 02:56:16;;;;;;;71.60;30.95;;;;;;;-146.27;95.37;33136.63;5078220;28;20463;-68
2023/12/19 02:58:42;;;;;;;68.10;30.15;;;;;;;-146.27;95.15;33091.00;5070282;28;20657;-67
2023/12/19 03:01:07;;;;;;;62.90;29.85;;;;;;;-146.27;95.56;33154.47;5063823;28;20021;-68
2023/12/19 03:03:32;;;;;;;70.85;30.20;;;;;;;-146.27;95.69;33198.13;5065934;28;20021;-68
2023/12/19 03:05:58;;;;;;;59.78;28.77;;;;;;;-146.27;94.96;33168.38;5071300;28;20029;-67
2023/12/19 03:08:23;;;;;;;64.47;29.08;;;;;;;-146.27;95.93;33214.00;5070968;28;20392;-67
2023/12/19 03:10:49;;;;;;;59.88;29.33;;;;;;;-146.27;96.44;33198.13;5072383;28;20445;-67
2023/12/19 03:13:14;;;;;;;62.60;28.90;;;;;;;-146.27;95.65;33172.34;5068099;28;20078;-67
2023/12/19 03:15:39;;;;;;;59.08;27.23;;;;;;;-146.27;96.15;33180.28;5069012;28;20575;-69
2023/12/19 03:18:05;;;;;;;54.28;28.95;;;;;;;-146.27;96.33;33221.94;5070261;28;20029;-69
2023/12/19 03:20:30;;;;;;;57.58;28.17;;;;;;;-146.27;96.89;33229.88;5063795;28;20048;-67
2023/12/19 03:22:55;;;;;;;55.63;28.52;;;;;;;-146.27;95.69;33146.53;5062227;28;20589;-68
2023/12/19 03:25:21;;;;;;;55.80;27.65;;;;;;;-146.27;96.38;33194.16;5071406;28;20131;-68
2023/12/19 03:27:46;;;;;;;65.75;30.73;;;;;;;-146.27;95.97;33160.44;5085245;28;20028;-68
2023/12/19 03:30:11;;;;;;;54.15;28.58;;;;;;;-146.27;96.05;33196.13;5069511;28;20032;-67
2023/12/19 03:32:37;;;;;;;51.55;25.98;;;;;;;-146.27;97.03;33283.44;5058843;28;20024;-68
2023/12/19 03:35:02;;;;;;;65.20;29.55;;;;;;;-146.27;97.42;33204.06;5070916;28;20043;-68
2023/12/19 03:37:28;;;;;;;60.65;29.80;;;;;;;-146.27;95.83;33096.94;5069428;28;20028;-68
2023/12/19 03:39:53;;;;;;;60.53;30.10;;;;;;;-146.27;96.59;33136.63;5070331;28;20059;-68
2023/12/19 03:42:18;;;;;;;58.05;26.55;;;;;;;-146.27;96.98;33247.72;5070850;28;20056;-68
2023/12/19 03:44:44;;;;;;;61.95;28.73;;;;;;;-146.27;96.78;33172.34;5062138;28;20024;-68
2023/12/19 03:47:12;;;;;;;56.25;27.35;;;;;;;-146.27;96.65;33196.13;5068501;28;20036;-68
2023/12/19 03:49:38;;;;;;;46.08;26.13;;;;;;;-146.27;95.83;33192.16;5068348;28;20082;-68
2023/12/19 03:52:03;;;;;;;51.72;26.45;;;;;;;-146.27;96.37;33148.53;5057810;28;20504;-68
2023/12/19 03:54:29;;;;;;;58.50;27.02;;;;;;;-146.27;96.14;33130.66;5070616;28;20029;-68
2023/12/19 03:56:55;;;;;;;47.03;23.65;;;;;;;-146.27;96.68;33233.84;5071381;28;20028;-68
2023/12/19 03:59:20;;;;;;;43.50;24.17;;;;;;;-146.27;97.67;33178.28;5070702;28;20432;-68
2023/12/19 04:01:48;;;;;;;47.97;24.90;;;;;;;-146.27;96.70;33166.38;5071146;28;20030;-68
2023/12/19 04:04:14;;;;;;;45.80;25.05;;;;;;;-146.27;96.19;33138.59;5072383;28;20024;-68
2023/12/19 04:06:43;;;;;;;49.28;24.67;;;;;;;-146.27;96.39;33200.09;5060861;28;20044;-68
2023/12/19 04:09:09;;;;;;;53.33;25.00;;;;;;;-146.27;97.45;33229.88;5052235;28;20115;-67
2023/12/19 04:11:35;;;;;;;52.50;24.52;;;;;;;-146.27;97.38;33162.41;5061835;28;20079;-67
2023/12/19 04:14:01;;;;;;;59.20;27.90;;;;;;;-146.27;97.25;33148.53;5067702;28;20028;-68
2023/12/19 04:16:26;;;;;;;51.83;26.48;;;;;;;-146.27;97.65;33198.13;5064084;28;20031;-68
2023/12/19 04:18:51;;;;;;;47.70;26.65;;;;;;;-146.27;96.64;33077.09;5071084;28;20028;-68
2023/12/19 04:21:17;;;;;;;47.70;25.60;;;;;;;-146.27;96.31;33132.66;5060286;28;20552;-68
2023/12/19 04:23:42;;;;;;;52.80;25.33;;;;;;;-146.27;96.87;33114.78;5051415;28;20378;-71
2023/12/19 04:26:07;;;;;;;49.05;24.48;;;;;;;-146.27;96.70;33130.66;5069277;28;20020;-70
2023/12/19 04:28:33;;;;;;;49.67;24.27;;;;;;;-146.27;97.25;33130.66;5063044;28;20112;-69
2023/12/19 04:30:58;;;;;;;44.45;24.08;;;;;;;-146.27;97.16;33162.41;5060715;28;20055;-69
2023/12/19 04:33:23;;;;;;;39.38;23.02;;;;;;;-146.27;96.06;33094.97;5066097;28;20048;-68
2023/12/19 04:35:49;;;;;;;48.28;21.55;;;;;;;-146.27;96.77;33112.81;5067485;28;20017;-68
2023/12/19 04:38:14;;;;;;;44.90;22.02;;;;;;;-146.27;97.13;33168.38;5056660;28;20024;-70
2023/12/19 04:40:39;;;;;;;47.53;22.52;;;;;;;-146.27;95.99;33069.16;5067001;28;20067;-70
2023/12/19 04:43:05;;;;;;;36.13;17.65;;;;;;;-146.27;97.40;33194.16;5060011;28;20483;-69
2023/12/19 04:45:30;;;;;;;39.60;20.92;;;;;;;-146.27;96.28;33128.69;5068963;28;20025;-68
2023/12/19 04:47:55;;;;;;;46.30;21.70;;;;;;;-146.27;96.79;33118.75;5068916;28;20029;-68
2023/12/19 04:50:21;;;;;;;40.42;21.35;;;;;;;-146.27;96.39;33085.03;5069841;28;20644;-68
2023/12/19 04:52:46;;;;;;;48.08;22.63;;;;;;;-146.27;97.71;33184.25;5062278;28;20041;-68
2023/12/19 04:55:12;;;;;;;46.53;21.52;;;;;;;-146.27;97.03;33120.75;5051486;28;20029;-68
2023/12/19 04:57:37;;;;;;;42.80;22.70;;;;;;;-146.27;96.17;33132.66;5069290;28;20077;-68
2023/12/19 05:00:04;;;;;;;50.28;24.17;;;;;;;-146.27;96.60;33136.63;5075441;28;20040;-69
2023/12/19 05:02:30;;;;;;;54.17;25.05;;;;;;;-146.27;96.25;33075.13;5068698;28;20111;-69
2023/12/19 05:04:55;;;;;;;49.17;24.90;;;;;;;-146.27;96.82;33077.09;5069687;28;20103;-68
2023/12/19 05:07:21;;;;;;;52.55;24.83;;;;;;;-146.27;97.44;33069.16;5069177;28;20066;-69
2023/12/19 05:09:46;;;;;;;54.40;26.98;;;;;;;-146.27;96.31;33053.28;5069350;28;20016;-67
2023/12/19 05:12:11;;;;;;;49.70;24.65;;;;;;;-146.27;96.68;33053.28;5069712;28;20052;-69
2023/12/19 05:14:37;;;;;;;57.17;26.25;;;;;;;-146.27;96.19;33037.41;5071207;28;20067;-68
2023/12/19 05:17:03;;;;;;;53.40;25.88;;;;;;;-146.27;96.05;32993.78;5061747;28;20063;-70
2023/12/19 05:19:29;;;;;;;45.92;23.23;;;;;;;-146.27;96.48;33069.16;5063583;28;20028;-69
2023/12/19 05:21:55;;;;;;;52.00;25.33;;;;;;;-146.27;95.85;33025.50;5069354;28;20078;-69
2023/12/19 05:24:20;;;;;;;42.70;24.10;;;;;;;-146.27;97.08;33049.31;5073669;28;20455;-69
2023/12/19 05:26:45;;;;;;;44.17;21.70;;;;;;;-146.27;97.41;33164.41;5072599;28;20116;-68
2023/12/19 05:29:11;;;;;;;45.13;24.10;;;;;;;-146.27;97.56;33053.28;5069668;28;20154;-68
2023/12/19 05:31:36;;;;;;;42.15;22.15;;;;;;;-146.27;97.74;33096.94;5058797;28;20021;-68
2023/12/19 05:34:01;;;;;;;39.42;20.17;;;;;;;-146.27;97.35;32971.94;5063219;28;20036;-69
2023/12/19 05:36:27;;;;;;;37.53;18.98;;;;;;;-146.27;97.05;33003.69;5062874;28;20039;-68
2023/12/19 05:38:52;;;;;;;34.28;19.77;;;;;;;-146.27;96.57;32981.88;5070011;28;20028;-69
2023/12/19 05:41:18;;;;;;;42.42;18.75;;;;;;;-146.27;97.26;33015.59;5067278;28;20107;-69
2023/12/19 05:43:43;;;;;;;39.38;19.33;;;;;;;-146.27;97.94;32979.88;5068221;28;20579;-69
2023/12/19 05:46:09;;;;;;;31.83;17.92;;;;;;;-146.27;96.33;32886.63;5067769;28;20025;-69
2023/12/19 05:48:34;;;;;;;39.10;19.02;;;;;;;-146.27;96.33;33003.69;5062582;28;20028;-69
2023/12/19 05:51:00;;;;;;;36.40;18.33;;;;;;;-146.27;97.11;33037.41;5058016;28;20112;-69
2023/12/19 05:53:27;;;;;;;44.92;22.67;;;;;;;-146.27;96.72;32922.34;5054228;28;20085;-70
2023/12/19 05:55:52;;;;;;;44.72;21.98;;;;;;;-146.27;96.28;32886.63;5071964;28;20028;-68
2023/12/19 05:58:18;;;;;;;39.78;20.88;;;;;;;-146.27;96.65;32922.34;5088067;28;20119;-69
2023/12/19 06:00:48;;;;;;;37.13;20.17;;;;;;;-146.27;96.95;32894.56;5069383;28;20075;-71
2023/12/19 06:03:13;;;;;;;48.22;21.02;;;;;;;-146.27;97.21;32960.03;5067927;28;20039;-70
2023/12/19 06:05:39;;;;;;;54.85;22.70;;;;;;;-146.27;96.00;32831.09;5067415;28;20025;-69
2023/12/19 06:08:06;;;;;;;44.33;22.15;;;;;;;-146.27;96.49;32942.19;5069099;28;20449;-68
2023/12/19 06:10:31;;;;;;;42.58;21.60;;;;;;;-146.27;97.48;32993.78;5069679;28;20484;-69
2023/12/19 06:12:56;;;;;;;50.15;22.45;;;;;;;-146.27;97.58;32954.09;5068676;28;20036;-69
2023/12/19 06:15:22;;;;;;;55.03;24.25;;;;;;;-146.27;96.12;32850.94;5060864;28;20742;-68
2023/12/19 06:17:48;;;;;;;47.15;24.17;;;;;;;-146.27;97.44;32918.38;5073097;28;20052;-68
2023/12/19 06:20:14;;;;;;;57.97;23.85;;;;;;;-146.27;96.33;32793.41;5082461;28;20028;-68
2023/12/19 06:22:41;;;;;;;50.03;23.92;;;;;;;-146.27;96.49;32912.44;5072139;28;20102;-66
2023/12/19 06:25:07;;;;;;;51.58;24.60;;;;;;;-146.27;96.33;32827.13;5057783;28;20065;-69
2023/12/19 06:27:36;;;;;;;48.25;24.58;;;;;;;-146.27;95.49;32733.88;5053044;28;20140;-69
2023/12/19 06:30:03;;;;;;;54.20;25.35;;;;;;;-146.27;95.85;32767.59;5068748;28;20031;-70
2023/12/19 06:32:28;;;;;;;58.30;26.85;;;;;;;-146.27;96.46;32819.19;5068989;28;20032;-68
2023/12/19 06:34:55;;;;;;;59.50;25.52;;;;;;;-146.27;96.77;32926.31;5072704;28;20028;-69
2023/12/19 06:37:20;;;;;;;56.92;28.45;;;;;;;-146.27;97.11;32841.00;5071242;28;20036;-69
2023/12/19 06:39:46;;;;;;;51.95;23.98;;;;;;;-146.27;97.51;32898.53;5065452;28;20029;-69
2023/12/19 06:42:11;;;;;;;55.55;24.88;;;;;;;-146.27;97.30;32874.75;5084337;28;20064;-69
2023/12/19 06:44:36;;;;;;;66.47;26.65;;;;;;;-146.27;97.05;32827.13;5067782;28;20036;-69
2023/12/19 06:47:02;;;;;;;57.40;27.75;;;;;;;-146.27;95.66;32737.84;5070908;28;20032;-69
2023/12/19 06:49:27;;;;;;;57.35;25.90;;;;;;;-146.27;96.81;32803.31;5068256;28;20020;-69
2023/12/19 06:51:53;;;;;;;63.80;28.45;;;;;;;-146.27;97.63;32813.25;5070981;28;20139;-69
2023/12/19 06:54:18;;;;;;;64.47;27.23;;;;;;;-146.27;96.49;32727.94;5061513;28;20059;-69
2023/12/19 06:56:43;;;;;;;59.92;25.85;;;;;;;-146.27;97.16;32854.91;5058913;28;20489;-72
2023/12/19 06:59:09;;;;;;;62.20;27.02;;;;;;;-146.27;96.54;32692.22;5067423;28;20021;-71
2023/12/19 07:01:35;;;;;;;59.63;26.75;;;;;;;-146.27;96.73;32741.81;5069615;28;20036;-70
2023/12/19 07:04:00;;;;;;;59.85;25.27;;;;;;;-146.27;97.88;32795.38;5070836;28;20039;-68
2023/12/19 07:06:26;;;;;;;55.63;24.60;;;;;;;-146.27;98.39;32854.91;5070677;28;20024;-69
2023/12/19 07:08:52;;;;;;;55.17;24.35;;;;;;;-146.27;97.86;32753.72;5067318;28;20047;-69
2023/12/19 07:11:19;;;;;;;60.55;24.05;;;;;;;-146.27;98.06;32775.53;5066850;28;20021;-68
2023/12/19 07:13:45;;;;;;;54.65;23.17;;;;;;;-146.27;98.06;32767.59;5067328;28;20382;-69
2023/12/19 07:16:14;;;;;;;53.60;24.10;;;;;;;-146.27;97.59;32688.25;5066189;28;20031;-68
2023/12/19 07:18:40;;;;;;;47.85;20.77;;;;;;;-146.27;98.54;32837.03;5069249;28;20032;-69
2023/12/19 07:21:07;;;;;;;46.33;21.85;;;;;;;-146.27;97.46;32684.28;5058071;28;20111;-69
2023/12/19 07:23:32;;;;;;;37.15;21.45;;;;;;;-146.27;97.81;32787.44;5064077;28;20039;-69
2023/12/19 07:25:57;;;;;;;48.53;22.45;;;;;;;-146.27;97.05;32720.00;5067362;28;20021;-69
2023/12/19 07:28:23;;;;;;;49.75;21.92;;;;;;;-146.27;96.84;32720.00;5065807;28;20033;-70
2023/12/19 07:30:49;;;;;;;46.50;23.35;;;;;;;-146.27;97.13;32817.19;5069568;28;20381;-67
2023/12/19 07:33:14;;;;;;;44.83;22.83;;;;;;;-146.27;97.88;32789.44;5071285;28;20078;-68
2023/12/19 07:35:41;;;;;;;45.80;21.05;;;;;;;-146.27;96.67;32749.75;5070272;28;20038;-69
2023/12/19 07:38:06;;;;;;;42.33;22.58;;;;;;;-146.27;97.59;32807.28;5070141;28;20102;-69
2023/12/19 07:40:31;;;;;;;51.22;24.33;;;;;;;-146.27;97.15;32759.66;5069978;28;20028;-70
2023/12/19 07:42:57;;;;;;;45.17;23.42;;;;;;;-146.27;95.93;32682.31;5071453;28;20044;-70
2023/12/19 07:45:22;;;;;;;45.70;22.98;;;;;;;-146.27;96.87;32755.69;5072551;28;20058;-69
2023/12/19 07:47:47;;;;;;;41.42;19.65;;;;;;;-146.27;97.26;32850.94;5072573;28;20078;-70
2023/12/19 07:50:13;;;;;;;36.60;21.13;;;;;;;-146.27;96.73;32751.75;5066121;28;20055;-69
2023/12/19 07:52:38;;;;;;;52.17;23.35;;;;;;;-146.27;97.05;32803.31;5052088;28;20374;-69
2023/12/19 07:55:04;;;;;;;44.25;23.80;;;;;;;-146.27;96.85;32837.03;5052687;28;20025;-70
2023/12/19 07:57:30;;;;;;;45.22;22.58;;;;;;;-146.27;96.67;32771.56;5051152;28;20387;-69
2023/12/19 07:59:55;;;;;;;49.50;24.67;;;;;;;-146.27;96.76;32735.88;5053903;28;20032;-69
2023/12/19 08:02:21;;;;;;;43.83;23.00;;;;;;;-146.27;96.02;32815.22;5071811;28;20103;-69
2023/12/19 08:04:47;;;;;;;47.08;23.30;;;;;;;-146.27;96.99;32801.34;5071728;28;20020;-69
2023/12/19 08:07:12;;;;;;;45.22;23.20;;;;;;;-146.27;95.57;32708.09;5064497;28;20039;-69
2023/12/19 08:09:38;;;;;;;48.97;23.15;;;;;;;-146.27;95.91;32739.84;5051972;28;20496;-70
2023/12/19 08:12:03;;;;;;;43.17;23.25;;;;;;;-146.27;96.83;32866.81;5051413;28;20801;-70
2023/12/19 08:14:29;;;;;;;45.58;22.70;;;;;;;-146.27;97.43;32835.06;5081823;28;20371;-68
2023/12/19 08:16:54;;;;;;;38.67;21.90;;;;;;;-146.27;96.96;32843.00;5087299;28;20391;-69
2023/12/19 08:19:20;;;;;;;47.50;23.52;;;;;;;-146.27;96.33;32793.41;5066713;28;20024;-70
2023/12/19 08:21:52;;;;;;;44.40;22.00;;;;;;;-146.27;96.41;32757.69;5068504;28;20024;-70
2023/12/19 08:24:18;;;;;;;34.00;19.50;;;;;;;-146.27;98.07;32930.28;5091203;28;20104;-69
2023/12/19 08:26:50;;;;;;;44.42;22.67;;;;;;;-146.27;97.92;32860.84;5072540;28;20086;-69
2023/12/19 08:29:16;;;;;;;51.35;23.63;;;;;;;-146.27;96.97;32850.94;5076017;28;20040;-69
2023/12/19 08:31:43;;;;;;;36.03;20.42;;;;;;;-146.27;97.26;32874.75;5071409;28;20027;-69
2023/12/19 08:34:09;;;;;;;39.20;20.70;;;;;;;-146.27;97.80;32827.13;5070831;28;20560;-69
2023/12/19 08:36:34;;;;;;;35.75;21.20;;;;;;;-146.27;97.21;32846.97;5071582;28;20030;-70
2023/12/19 08:39:00;;;;;;;43.53;21.13;;;;;;;-146.27;97.00;32807.28;5082257;28;20450;-68
2023/12/19 08:41:25;;;;;;;39.45;19.05;;;;;;;-146.27;97.44;32848.94;5072556;28;20028;-69
2023/12/19 08:43:52;;;;;;;35.15;18.95;;;;;;;-146.27;96.65;32839.03;5071428;28;20029;-69
2023/12/19 08:46:18;;;;;;;42.65;20.85;;;;;;;-146.27;97.00;32757.69;5077547;28;20032;-68
2023/12/19 08:48:43;;;;;;;35.97;19.33;;;;;;;-146.27;97.64;32934.25;5091743;28;20481;-68
2023/12/19 08:51:10;;;;;;;33.60;19.95;;;;;;;-146.27;98.06;32906.47;5063623;28;20027;-69
2023/12/19 08:53:36;;;;;;;38.75;20.65;;;;;;;-146.27;96.39;32704.13;5070484;28;20048;-70
2023/12/19 08:56:01;;;;;;;44.63;22.90;;;;;;;-146.27;96.24;32757.69;5068720;28;20044;-69
2023/12/19 08:58:26;;;;;;;34.42;20.08;;;;;;;-146.27;95.69;32743.81;5064591;28;20039;-69
2023/12/19 09:00:52;;;;;;;39.35;19.17;;;;;;;-146.27;97.77;32930.28;5070816;28;20039;-70
2023/12/19 09:03:17;;;;;;;34.65;18.92;;;;;;;-146.27;97.22;32793.41;5075344;28;20556;-69
2023/12/19 09:05:43;;;;;;;33.05;17.20;;;;;;;-146.27;97.94;32936.25;5072626;28;20044;-70
2023/12/19 09:08:08;;;;;;;30.42;17.33;;;;;;;-146.27;97.96;32942.19;5089960;28;20041;-68
2023/12/19 09:10:33;;;;;;;31.60;18.70;;;;;;;-146.27;97.77;32850.94;5091212;28;20078;-69
2023/12/19 09:12:59;;;;;;;37.17;18.60;;;;;;;-146.27;96.78;32759.66;5070985;28;20024;-68
2023/12/19 09:15:24;;;;;;;38.72;19.55;;;;;;;-146.27;97.00;32749.75;5070413;28;20112;-70
2023/12/19 09:17:49;;;;;;;31.75;17.00;;;;;;;-146.27;97.21;32910.44;5070976;28;20112;-69
2023/12/19 09:20:15;;;;;;;32.45;18.80;;;;;;;-146.27;97.26;32785.47;5066333;28;20020;-69
2023/12/19 09:22:41;;;;;;;35.08;17.45;;;;;;;-146.27;96.81;32775.53;5070310;28;20074;-69
2023/12/19 09:25:14;;;;;;;27.08;15.38;;;;;;;-146.27;96.49;32858.88;5071236;28;20025;-69
2023/12/19 09:27:41;;;;;;;27.42;16.52;;;;;;;-146.27;96.67;32769.59;5074933;28;20050;-70
2023/12/19 09:30:07;;;;;;;36.90;16.98;;;;;;;-146.27;96.92;32823.16;5069388;28;20032;-69
2023/12/19 09:32:32;;;;;;;32.58;17.00;;;;;;;-146.27;97.27;32852.91;5070586;28;20568;-70
2023/12/19 09:34:58;;;;;;;38.47;16.52;;;;;;;-146.27;97.00;32835.06;5071071;28;20033;-69
2023/12/19 09:37:26;;;;;;;28.95;15.63;;;;;;;-146.27;97.33;32819.19;5074115;28;20025;-69
2023/12/19 09:39:52;;;;;;;28.83;16.40;;;;;;;-146.27;96.35;32745.78;5077641;28;20517;-69
2023/12/19 09:42:19;;;;;;;27.52;14.60;;;;;;;-146.27;97.38;32850.94;5082034;28;20032;-68
2023/12/19 09:44:51;;;;;;;31.23;15.50;;;;;;;-146.27;97.31;32831.09;5067398;28;20036;-69
2023/12/19 09:47:29;;;;;;;25.60;15.25;;;;;;;-146.27;97.36;32791.41;5051676;28;20098;-69
2023/12/19 09:50:00;;;;;;;28.38;15.77;;;;;;;-146.27;97.34;32805.31;5068143;28;20047;-68
2023/12/19 09:52:27;;;;;;;21.10;14.25;;;;;;;-146.27;96.64;32739.84;5068380;28;20032;-69
2023/12/19 09:54:53;;;;;;;26.23;14.10;;;;;;;-146.27;96.61;32761.66;5070144;28;20123;-69
2023/12/19 09:57:19;;;;;;;24.27;15.75;;;;;;;-146.27;96.35;32771.56;5069595;28;20556;-69
2023/12/19 09:59:46;;;;;;;29.92;14.77;;;;;;;-146.27;96.81;32787.44;5071227;28;20032;-69
2023/12/19 10:02:12;;;;;;;25.98;14.90;;;;;;;-146.27;97.42;32918.38;5068355;28;20031;-69
2023/12/19 10:04:38;;;;;;;30.58;16.35;;;;;;;-146.27;97.09;32805.31;5070436;28;20028;-69
2023/12/19 10:07:04;;;;;;;27.33;13.98;;;;;;;-146.27;97.23;32783.47;5074377;28;20414;-69
2023/12/19 10:09:30;;;;;;;27.33;14.18;;;;;;;-146.27;96.30;32807.28;5069009;28;20028;-69
2023/12/19 10:12:05;;;;;;;28.90;14.15;;;;;;;-146.27;96.64;32765.63;5054762;28;20029;-71
2023/12/19 10:14:33;;;;;;;25.77;14.50;;;;;;;-146.27;96.21;32755.69;5062275;28;20028;-70
2023/12/19 10:16:59;;;;;;;28.60;14.65;;;;;;;-146.27;96.28;32723.97;5077716;28;20070;-70
2023/12/19 10:19:26;;;;;;;22.40;13.25;;;;;;;-146.27;95.57;32712.06;5073880;28;20025;-69
2023/12/19 10:22:04;;;;;;;22.60;13.13;;;;;;;-146.27;96.87;32712.06;5071387;28;20021;-70
2023/12/19 10:24:29;;;;;;;26.23;13.90;;;;;;;-146.27;96.54;32791.41;5073619;28;20464;-70
2023/12/19 10:27:05;;;;;;;21.20;12.60;;;;;;;-146.27;96.76;32775.53;5074506;28;20040;-71
2023/12/19 10:29:36;;;;;;;25.35;13.32;;;;;;;-146.27;95.96;32741.81;5066016;28;20031;-71
2023/12/19 10:32:16;;;;;;;24.15;12.00;;;;;;;-146.27;97.59;32811.25;5073205;28;20472;-70
2023/12/19 10:34:42;;;;;;;17.85;11.57;;;;;;;-146.27;97.03;32813.25;5076432;28;20388;-70
2023/12/19 10:37:11;;;;;;;24.92;12.85;;;;;;;-146.27;97.19;32791.41;5076413;28;20115;-69
2023/12/19 10:39:37;;;;;;;20.52;11.85;;;;;;;-146.27;96.22;32712.06;5073725;28;20027;-70
2023/12/19 10:42:06;;;;;;;21.20;11.80;;;;;;;-146.27;97.29;32823.16;5073025;28;20368;-69
2023/12/19 10:44:32;;;;;;;23.88;13.40;;;;;;;-146.27;97.73;32765.63;5073836;28;20075;-70
2023/12/19 10:47:01;;;;;;;26.13;12.27;;;;;;;-146.27;96.23;32674.38;5076502;28;20032;-71
2023/12/19 10:49:26;;;;;;;26.42;13.45;;;;;;;-146.27;96.87;32757.69;5071841;28;20032;-70
2023/12/19 10:51:56;;;;;;;22.83;12.90;;;;;;;-146.27;96.41;32743.81;5062792;28;21471;-70
2023/12/19 10:54:25;;;;;;;30.85;17.05;;;;;;;-146.27;95.86;32702.13;5073062;28;20020;-70
2023/12/19 10:57:02;;;;;;;21.02;12.52;;;;;;;-146.27;97.79;32886.63;5072283;28;20124;-70